sensor_id;sensor_type;location;lat;lon;timestamp;P1;durP1;ratioP1;P2;durP2;ratioP2
71648;SDS011;59492;45.638;11.714;2022-11-11T00:02:00;4.20;;;3.00;;
71648;SDS011;59492;45.638;11.714;2022-11-11T00:04:25;3.10;;;2.60;;
71648;SDS011;59492;45.638;11.714;2022-11-11T00:06:52;2.70;;;2.40;;
71648;SDS011;59492;45.638;11.714;2022-11-11T00:09:18;2.70;;;2.40;;
71648;SDS011;59492;45.638;11.714;2022-11-11T00:11:43;2.90;;;2.60;;
71648;SDS011;59492;45.638;11.714;2022-11-11T00:14:09;4.70;;;3.00;;
71648;SDS011;59492;45.638;11.714;2022-11-11T00:16:35;4.80;;;3.40;;
71648;SDS011;59492;45.638;11.714;2022-11-11T00:19:19;3.70;;;3.00;;
71648;SDS011;59492;45.638;11.714;2022-11-11T00:22:03;3.30;;;3.00;;
71648;SDS011;59492;45.638;11.714;2022-11-11T00:24:47;3.30;;;2.90;;
71648;SDS011;59492;45.638;11.714;2022-11-11T00:27:31;3.20;;;2.90;;
71648;SDS011;59492;45.638;11.714;2022-11-11T00:29:57;3.30;;;3.00;;
71648;SDS011;59492;45.638;11.714;2022-11-11T00:32:23;2.90;;;2.50;;
71648;SDS011;59492;45.638;11.714;2022-11-11T00:34:51;3.20;;;2.90;;
71648;SDS011;59492;45.638;11.714;2022-11-11T00:37:37;3.20;;;2.80;;
71648;SDS011;59492;45.638;11.714;2022-11-11T00:40:03;4.00;;;2.70;;
71648;SDS011;59492;45.638;11.714;2022-11-11T00:42:29;3.20;;;2.80;;
71648;SDS011;59492;45.638;11.714;2022-11-11T00:44:55;3.30;;;2.90;;
71648;SDS011;59492;45.638;11.714;2022-11-11T00:47:20;3.50;;;2.90;;
71648;SDS011;59492;45.638;11.714;2022-11-11T00:50:16;3.20;;;2.90;;
71648;SDS011;59492;45.638;11.714;2022-11-11T00:53:06;3.20;;;2.80;;
71648;SDS011;59492;45.638;11.714;2022-11-11T00:55:36;3.50;;;3.00;;
71648;SDS011;59492;45.638;11.714;2022-11-11T00:58:02;3.10;;;2.80;;
71648;SDS011;59492;45.638;11.714;2022-11-11T01:00:28;4.70;;;2.70;;
71648;SDS011;59492;45.638;11.714;2022-11-11T01:02:53;3.10;;;2.70;;
71648;SDS011;59492;45.638;11.714;2022-11-11T01:05:19;3.30;;;3.00;;
71648;SDS011;59492;45.638;11.714;2022-11-11T01:07:44;3.20;;;2.90;;
71648;SDS011;59492;45.638;11.714;2022-11-11T01:10:12;4.20;;;3.10;;
71648;SDS011;59492;45.638;11.714;2022-11-11T01:12:58;3.50;;;3.20;;
71648;SDS011;59492;45.638;11.714;2022-11-11T01:15:36;3.50;;;3.10;;
71648;SDS011;59492;45.638;11.714;2022-11-11T01:18:02;3.30;;;3.00;;
71648;SDS011;59492;45.638;11.714;2022-11-11T01:20:28;3.60;;;3.10;;
71648;SDS011;59492;45.638;11.714;2022-11-11T01:22:53;3.00;;;2.70;;
71648;SDS011;59492;45.638;11.714;2022-11-11T01:25:19;3.60;;;3.30;;
71648;SDS011;59492;45.638;11.714;2022-11-11T01:27:44;3.30;;;2.90;;
71648;SDS011;59492;45.638;11.714;2022-11-11T01:30:10;3.30;;;3.00;;
71648;SDS011;59492;45.638;11.714;2022-11-11T01:32:38;3.20;;;2.80;;
71648;SDS011;59492;45.638;11.714;2022-11-11T01:35:04;2.80;;;2.60;;
71648;SDS011;59492;45.638;11.714;2022-11-11T01:37:31;3.30;;;2.90;;
71648;SDS011;59492;45.638;11.714;2022-11-11T01:39:57;4.20;;;3.40;;
71648;SDS011;59492;45.638;11.714;2022-11-11T01:42:23;3.50;;;3.10;;
71648;SDS011;59492;45.638;11.714;2022-11-11T01:44:48;4.10;;;3.10;;
71648;SDS011;59492;45.638;11.714;2022-11-11T01:47:14;4.00;;;2.70;;
71648;SDS011;59492;45.638;11.714;2022-11-11T01:49:50;3.10;;;2.80;;
71648;SDS011;59492;45.638;11.714;2022-11-11T01:52:25;3.70;;;3.30;;
71648;SDS011;59492;45.638;11.714;2022-11-11T02:00:11;3.10;;;2.80;;
71648;SDS011;59492;45.638;11.714;2022-11-11T02:02:40;3.50;;;3.20;;
71648;SDS011;59492;45.638;11.714;2022-11-11T02:05:12;3.90;;;3.20;;
71648;SDS011;59492;45.638;11.714;2022-11-11T02:07:58;3.40;;;3.10;;
71648;SDS011;59492;45.638;11.714;2022-11-11T02:10:28;3.20;;;3.00;;
71648;SDS011;59492;45.638;11.714;2022-11-11T02:12:55;3.30;;;3.00;;
71648;SDS011;59492;45.638;11.714;2022-11-11T02:15:39;3.00;;;2.70;;
71648;SDS011;59492;45.638;11.714;2022-11-11T02:18:05;5.10;;;3.10;;
71648;SDS011;59492;45.638;11.714;2022-11-11T02:20:41;3.30;;;3.00;;
71648;SDS011;59492;45.638;11.714;2022-11-11T02:23:16;3.60;;;2.80;;
71648;SDS011;59492;45.638;11.714;2022-11-11T02:25:48;3.10;;;2.80;;
71648;SDS011;59492;45.638;11.714;2022-11-11T02:28:15;3.30;;;3.00;;
71648;SDS011;59492;45.638;11.714;2022-11-11T02:30:43;3.30;;;3.00;;
71648;SDS011;59492;45.638;11.714;2022-11-11T02:33:09;4.40;;;2.70;;
71648;SDS011;59492;45.638;11.714;2022-11-11T02:35:36;3.10;;;2.80;;
71648;SDS011;59492;45.638;11.714;2022-11-11T02:38:05;3.10;;;2.80;;
71648;SDS011;59492;45.638;11.714;2022-11-11T02:40:42;3.20;;;2.90;;
71648;SDS011;59492;45.638;11.714;2022-11-11T02:43:27;3.70;;;3.30;;
71648;SDS011;59492;45.638;11.714;2022-11-11T02:45:55;4.60;;;3.00;;
71648;SDS011;59492;45.638;11.714;2022-11-11T02:48:21;4.00;;;3.20;;
71648;SDS011;59492;45.638;11.714;2022-11-11T02:50:48;3.80;;;3.20;;
71648;SDS011;59492;45.638;11.714;2022-11-11T02:53:13;4.00;;;3.10;;
71648;SDS011;59492;45.638;11.714;2022-11-11T02:55:39;3.30;;;3.00;;
71648;SDS011;59492;45.638;11.714;2022-11-11T02:58:04;4.00;;;2.80;;
71648;SDS011;59492;45.638;11.714;2022-11-11T03:00:30;3.30;;;3.00;;
71648;SDS011;59492;45.638;11.714;2022-11-11T03:02:56;3.50;;;3.20;;
71648;SDS011;59492;45.638;11.714;2022-11-11T03:05:22;4.00;;;2.90;;
71648;SDS011;59492;45.638;11.714;2022-11-11T03:07:48;3.60;;;3.20;;
71648;SDS011;59492;45.638;11.714;2022-11-11T03:10:13;3.40;;;3.10;;
71648;SDS011;59492;45.638;11.714;2022-11-11T03:12:39;3.50;;;3.10;;
71648;SDS011;59492;45.638;11.714;2022-11-11T03:15:05;3.40;;;3.10;;
71648;SDS011;59492;45.638;11.714;2022-11-11T03:17:31;3.20;;;2.80;;
71648;SDS011;59492;45.638;11.714;2022-11-11T03:20:05;3.80;;;3.10;;
71648;SDS011;59492;45.638;11.714;2022-11-11T03:23:00;3.70;;;3.20;;
71648;SDS011;59492;45.638;11.714;2022-11-11T03:25:27;3.60;;;3.30;;
71648;SDS011;59492;45.638;11.714;2022-11-11T03:28:02;3.70;;;3.20;;
71648;SDS011;59492;45.638;11.714;2022-11-11T03:30:31;4.50;;;3.00;;
71648;SDS011;59492;45.638;11.714;2022-11-11T03:32:58;3.40;;;3.00;;
71648;SDS011;59492;45.638;11.714;2022-11-11T03:35:24;3.50;;;3.20;;
71648;SDS011;59492;45.638;11.714;2022-11-11T03:37:50;4.00;;;3.10;;
71648;SDS011;59492;45.638;11.714;2022-11-11T03:40:34;4.10;;;3.20;;
71648;SDS011;59492;45.638;11.714;2022-11-11T03:43:00;3.10;;;2.80;;
71648;SDS011;59492;45.638;11.714;2022-11-11T03:45:25;3.20;;;2.90;;
71648;SDS011;59492;45.638;11.714;2022-11-11T03:47:51;4.30;;;3.00;;
71648;SDS011;59492;45.638;11.714;2022-11-11T03:50:19;3.60;;;3.10;;
71648;SDS011;59492;45.638;11.714;2022-11-11T03:52:46;3.50;;;3.20;;
71648;SDS011;59492;45.638;11.714;2022-11-11T03:55:11;3.90;;;2.90;;
71648;SDS011;59492;45.638;11.714;2022-11-11T03:57:39;3.30;;;3.00;;
71648;SDS011;59492;45.638;11.714;2022-11-11T04:00:05;3.60;;;3.20;;
71648;SDS011;59492;45.638;11.714;2022-11-11T04:02:31;3.30;;;3.00;;
71648;SDS011;59492;45.638;11.714;2022-11-11T04:05:16;3.10;;;2.80;;
71648;SDS011;59492;45.638;11.714;2022-11-11T04:08:00;3.80;;;3.00;;
71648;SDS011;59492;45.638;11.714;2022-11-11T04:10:44;2.80;;;2.60;;
71648;SDS011;59492;45.638;11.714;2022-11-11T04:13:09;3.10;;;2.80;;
71648;SDS011;59492;45.638;11.714;2022-11-11T04:15:54;3.10;;;2.90;;
71648;SDS011;59492;45.638;11.714;2022-11-11T04:18:32;3.70;;;3.30;;
71648;SDS011;59492;45.638;11.714;2022-11-11T04:21:18;3.50;;;3.00;;
71648;SDS011;59492;45.638;11.714;2022-11-11T04:24:02;3.40;;;2.80;;
71648;SDS011;59492;45.638;11.714;2022-11-11T04:26:48;3.10;;;2.70;;
71648;SDS011;59492;45.638;11.714;2022-11-11T04:29:14;3.70;;;2.90;;
71648;SDS011;59492;45.638;11.714;2022-11-11T04:31:56;3.10;;;2.80;;
71648;SDS011;59492;45.638;11.714;2022-11-11T04:34:43;3.10;;;2.80;;
71648;SDS011;59492;45.638;11.714;2022-11-11T04:37:10;3.40;;;3.10;;
71648;SDS011;59492;45.638;11.714;2022-11-11T04:39:36;3.70;;;3.20;;
71648;SDS011;59492;45.638;11.714;2022-11-11T04:42:22;3.30;;;3.00;;
71648;SDS011;59492;45.638;11.714;2022-11-11T04:44:47;3.30;;;3.00;;
71648;SDS011;59492;45.638;11.714;2022-11-11T04:47:32;3.30;;;3.00;;
71648;SDS011;59492;45.638;11.714;2022-11-11T04:49:58;3.70;;;3.10;;
71648;SDS011;59492;45.638;11.714;2022-11-11T04:52:24;2.70;;;2.50;;
71648;SDS011;59492;45.638;11.714;2022-11-11T04:54:55;2.80;;;2.50;;
71648;SDS011;59492;45.638;11.714;2022-11-11T04:57:42;3.20;;;2.90;;
71648;SDS011;59492;45.638;11.714;2022-11-11T05:00:11;3.80;;;2.80;;
71648;SDS011;59492;45.638;11.714;2022-11-11T05:02:39;2.70;;;2.50;;
71648;SDS011;59492;45.638;11.714;2022-11-11T05:05:23;3.30;;;3.00;;
71648;SDS011;59492;45.638;11.714;2022-11-11T05:07:50;3.70;;;3.10;;
71648;SDS011;59492;45.638;11.714;2022-11-11T05:10:35;3.10;;;2.80;;
71648;SDS011;59492;45.638;11.714;2022-11-11T05:13:02;3.30;;;2.80;;
71648;SDS011;59492;45.638;11.714;2022-11-11T05:15:58;4.00;;;2.50;;
71648;SDS011;59492;45.638;11.714;2022-11-11T05:18:44;6.80;;;3.00;;
71648;SDS011;59492;45.638;11.714;2022-11-11T05:21:30;4.10;;;2.90;;
71648;SDS011;59492;45.638;11.714;2022-11-11T05:23:57;3.70;;;3.00;;
71648;SDS011;59492;45.638;11.714;2022-11-11T05:26:43;3.40;;;3.10;;
71648;SDS011;59492;45.638;11.714;2022-11-11T05:29:09;3.30;;;2.90;;
71648;SDS011;59492;45.638;11.714;2022-11-11T05:31:37;3.10;;;2.70;;
71648;SDS011;59492;45.638;11.714;2022-11-11T05:34:05;3.10;;;2.80;;
71648;SDS011;59492;45.638;11.714;2022-11-11T05:36:30;3.30;;;3.00;;
71648;SDS011;59492;45.638;11.714;2022-11-11T05:38:58;3.50;;;2.80;;
71648;SDS011;59492;45.638;11.714;2022-11-11T05:41:25;2.80;;;2.50;;
71648;SDS011;59492;45.638;11.714;2022-11-11T05:43:56;3.10;;;2.70;;
71648;SDS011;59492;45.638;11.714;2022-11-11T05:46:22;4.10;;;3.10;;
71648;SDS011;59492;45.638;11.714;2022-11-11T05:48:49;3.50;;;3.20;;
71648;SDS011;59492;45.638;11.714;2022-11-11T05:51:39;3.10;;;2.80;;
71648;SDS011;59492;45.638;11.714;2022-11-11T05:54:06;3.30;;;3.00;;
71648;SDS011;59492;45.638;11.714;2022-11-11T05:56:31;3.00;;;2.70;;
71648;SDS011;59492;45.638;11.714;2022-11-11T05:58:57;2.90;;;2.60;;
71648;SDS011;59492;45.638;11.714;2022-11-11T06:01:22;2.70;;;2.40;;
71648;SDS011;59492;45.638;11.714;2022-11-11T06:03:48;2.90;;;2.40;;
71648;SDS011;59492;45.638;11.714;2022-11-11T06:06:13;2.80;;;2.60;;
71648;SDS011;59492;45.638;11.714;2022-11-11T06:08:39;2.90;;;2.60;;
71648;SDS011;59492;45.638;11.714;2022-11-11T06:11:05;2.80;;;2.50;;
71648;SDS011;59492;45.638;11.714;2022-11-11T06:13:32;2.60;;;2.40;;
71648;SDS011;59492;45.638;11.714;2022-11-11T06:15:58;2.90;;;2.60;;
71648;SDS011;59492;45.638;11.714;2022-11-11T06:18:25;3.20;;;2.90;;
71648;SDS011;59492;45.638;11.714;2022-11-11T06:20:54;4.00;;;2.70;;
71648;SDS011;59492;45.638;11.714;2022-11-11T06:23:22;2.60;;;2.40;;
71648;SDS011;59492;45.638;11.714;2022-11-11T06:25:49;2.70;;;2.40;;
71648;SDS011;59492;45.638;11.714;2022-11-11T06:28:34;3.10;;;2.80;;
71648;SDS011;59492;45.638;11.714;2022-11-11T06:31:01;4.30;;;2.80;;
71648;SDS011;59492;45.638;11.714;2022-11-11T06:33:35;2.80;;;2.50;;
71648;SDS011;59492;45.638;11.714;2022-11-11T06:36:03;4.80;;;3.00;;
71648;SDS011;59492;45.638;11.714;2022-11-11T06:38:31;4.60;;;2.40;;
71648;SDS011;59492;45.638;11.714;2022-11-11T06:40:57;8.70;;;2.70;;
71648;SDS011;59492;45.638;11.714;2022-11-11T06:43:22;6.00;;;2.50;;
71648;SDS011;59492;45.638;11.714;2022-11-11T06:45:48;3.00;;;2.40;;
71648;SDS011;59492;45.638;11.714;2022-11-11T06:48:15;4.00;;;2.30;;
71648;SDS011;59492;45.638;11.714;2022-11-11T06:50:41;7.70;;;3.20;;
71648;SDS011;59492;45.638;11.714;2022-11-11T06:53:07;4.00;;;2.30;;
71648;SDS011;59492;45.638;11.714;2022-11-11T06:55:36;3.50;;;2.60;;
71648;SDS011;59492;45.638;11.714;2022-11-11T06:58:08;4.70;;;2.70;;
71648;SDS011;59492;45.638;11.714;2022-11-11T07:00:48;3.50;;;2.30;;
71648;SDS011;59492;45.638;11.714;2022-11-11T07:03:18;3.30;;;2.70;;
71648;SDS011;59492;45.638;11.714;2022-11-11T07:05:47;3.70;;;2.50;;
71648;SDS011;59492;45.638;11.714;2022-11-11T07:08:15;3.90;;;2.50;;
71648;SDS011;59492;45.638;11.714;2022-11-11T07:10:43;3.40;;;2.50;;
71648;SDS011;59492;45.638;11.714;2022-11-11T07:13:11;2.50;;;2.20;;
71648;SDS011;59492;45.638;11.714;2022-11-11T07:15:39;3.00;;;2.30;;
71648;SDS011;59492;45.638;11.714;2022-11-11T07:18:06;3.40;;;2.50;;
71648;SDS011;59492;45.638;11.714;2022-11-11T07:20:32;3.30;;;2.40;;
71648;SDS011;59492;45.638;11.714;2022-11-11T07:22:58;3.80;;;2.20;;
71648;SDS011;59492;45.638;11.714;2022-11-11T07:25:24;3.00;;;2.70;;
71648;SDS011;59492;45.638;11.714;2022-11-11T07:27:49;2.90;;;2.30;;
71648;SDS011;59492;45.638;11.714;2022-11-11T07:30:15;3.90;;;2.50;;
71648;SDS011;59492;45.638;11.714;2022-11-11T07:32:47;2.60;;;2.30;;
71648;SDS011;59492;45.638;11.714;2022-11-11T07:35:15;3.10;;;2.20;;
71648;SDS011;59492;45.638;11.714;2022-11-11T07:37:42;4.10;;;2.20;;
71648;SDS011;59492;45.638;11.714;2022-11-11T07:40:09;3.60;;;2.30;;
71648;SDS011;59492;45.638;11.714;2022-11-11T07:42:36;3.70;;;3.00;;
71648;SDS011;59492;45.638;11.714;2022-11-11T07:45:03;9.30;;;2.50;;
71648;SDS011;59492;45.638;11.714;2022-11-11T07:47:30;4.80;;;2.70;;
71648;SDS011;59492;45.638;11.714;2022-11-11T07:49:55;2.60;;;2.40;;
71648;SDS011;59492;45.638;11.714;2022-11-11T07:52:21;4.80;;;4.20;;
71648;SDS011;59492;45.638;11.714;2022-11-11T07:54:48;4.60;;;3.60;;
71648;SDS011;59492;45.638;11.714;2022-11-11T07:57:14;5.10;;;3.90;;
71648;SDS011;59492;45.638;11.714;2022-11-11T07:59:40;9.00;;;3.70;;
71648;SDS011;59492;45.638;11.714;2022-11-11T08:02:10;5.10;;;3.80;;
71648;SDS011;59492;45.638;11.714;2022-11-11T08:04:38;3.90;;;3.40;;
71648;SDS011;59492;45.638;11.714;2022-11-11T08:07:07;7.00;;;3.50;;
71648;SDS011;59492;45.638;11.714;2022-11-11T08:09:34;3.20;;;2.90;;
71648;SDS011;59492;45.638;11.714;2022-11-11T08:12:10;3.50;;;3.00;;
71648;SDS011;59492;45.638;11.714;2022-11-11T08:15:02;3.70;;;3.10;;
71648;SDS011;59492;45.638;11.714;2022-11-11T08:17:38;5.60;;;3.20;;
71648;SDS011;59492;45.638;11.714;2022-11-11T08:20:09;5.30;;;2.90;;
71648;SDS011;59492;45.638;11.714;2022-11-11T08:22:46;3.40;;;3.00;;
71648;SDS011;59492;45.638;11.714;2022-11-11T08:25:35;3.30;;;2.90;;
71648;SDS011;59492;45.638;11.714;2022-11-11T08:28:13;3.20;;;2.90;;
71648;SDS011;59492;45.638;11.714;2022-11-11T08:30:38;5.50;;;3.00;;
71648;SDS011;59492;45.638;11.714;2022-11-11T08:33:04;3.20;;;2.70;;
71648;SDS011;59492;45.638;11.714;2022-11-11T08:35:30;4.10;;;2.90;;
71648;SDS011;59492;45.638;11.714;2022-11-11T08:38:00;4.10;;;2.90;;
71648;SDS011;59492;45.638;11.714;2022-11-11T08:40:40;3.20;;;2.70;;
71648;SDS011;59492;45.638;11.714;2022-11-11T08:43:14;4.00;;;2.60;;
71648;SDS011;59492;45.638;11.714;2022-11-11T08:45:52;3.80;;;2.60;;
71648;SDS011;59492;45.638;11.714;2022-11-11T08:48:30;4.20;;;2.60;;
71648;SDS011;59492;45.638;11.714;2022-11-11T08:50:59;3.50;;;2.70;;
71648;SDS011;59492;45.638;11.714;2022-11-11T08:53:34;2.60;;;2.40;;
71648;SDS011;59492;45.638;11.714;2022-11-11T08:56:05;3.20;;;2.80;;
71648;SDS011;59492;45.638;11.714;2022-11-11T08:58:32;3.60;;;2.60;;
71648;SDS011;59492;45.638;11.714;2022-11-11T09:00:58;2.70;;;2.50;;
71648;SDS011;59492;45.638;11.714;2022-11-11T09:03:26;3.20;;;2.60;;
71648;SDS011;59492;45.638;11.714;2022-11-11T09:05:54;4.20;;;2.80;;
71648;SDS011;59492;45.638;11.714;2022-11-11T09:08:21;3.20;;;2.60;;
71648;SDS011;59492;45.638;11.714;2022-11-11T09:10:47;3.20;;;2.70;;
71648;SDS011;59492;45.638;11.714;2022-11-11T09:13:14;4.20;;;2.60;;
71648;SDS011;59492;45.638;11.714;2022-11-11T09:15:48;4.20;;;2.80;;
71648;SDS011;59492;45.638;11.714;2022-11-11T09:18:14;3.20;;;2.70;;
71648;SDS011;59492;45.638;11.714;2022-11-11T09:20:40;3.10;;;2.70;;
71648;SDS011;59492;45.638;11.714;2022-11-11T09:23:05;3.20;;;2.70;;
71648;SDS011;59492;45.638;11.714;2022-11-11T09:25:31;3.80;;;2.60;;
71648;SDS011;59492;45.638;11.714;2022-11-11T09:27:57;3.70;;;2.80;;
71648;SDS011;59492;45.638;11.714;2022-11-11T09:30:24;5.40;;;2.70;;
71648;SDS011;59492;45.638;11.714;2022-11-11T09:32:51;3.10;;;2.40;;
71648;SDS011;59492;45.638;11.714;2022-11-11T09:35:17;3.10;;;2.60;;
71648;SDS011;59492;45.638;11.714;2022-11-11T09:37:54;4.30;;;2.80;;
71648;SDS011;59492;45.638;11.714;2022-11-11T09:40:24;4.40;;;3.10;;
71648;SDS011;59492;45.638;11.714;2022-11-11T09:43:28;3.50;;;2.80;;
71648;SDS011;59492;45.638;11.714;2022-11-11T09:51:42;5.00;;;2.90;;
71648;SDS011;59492;45.638;11.714;2022-11-11T09:54:18;3.80;;;2.70;;
71648;SDS011;59492;45.638;11.714;2022-11-11T09:56:51;5.20;;;2.80;;
71648;SDS011;59492;45.638;11.714;2022-11-11T09:59:19;3.40;;;2.70;;
71648;SDS011;59492;45.638;11.714;2022-11-11T10:01:57;5.80;;;3.00;;
71648;SDS011;59492;45.638;11.714;2022-11-11T10:07:12;3.80;;;2.70;;
71648;SDS011;59492;45.638;11.714;2022-11-11T10:10:03;4.00;;;2.60;;
71648;SDS011;59492;45.638;11.714;2022-11-11T10:15:11;4.50;;;2.40;;
71648;SDS011;59492;45.638;11.714;2022-11-11T10:20:15;4.70;;;2.90;;
71648;SDS011;59492;45.638;11.714;2022-11-11T10:22:50;3.60;;;2.80;;
71648;SDS011;59492;45.638;11.714;2022-11-11T10:25:25;3.20;;;2.60;;
71648;SDS011;59492;45.638;11.714;2022-11-11T10:27:53;4.60;;;3.00;;
71648;SDS011;59492;45.638;11.714;2022-11-11T10:30:27;3.30;;;2.70;;
71648;SDS011;59492;45.638;11.714;2022-11-11T10:33:01;3.40;;;2.60;;
71648;SDS011;59492;45.638;11.714;2022-11-11T10:35:31;4.20;;;2.90;;
71648;SDS011;59492;45.638;11.714;2022-11-11T10:38:00;2.90;;;2.50;;
71648;SDS011;59492;45.638;11.714;2022-11-11T10:40:38;3.20;;;2.60;;
71648;SDS011;59492;45.638;11.714;2022-11-11T10:43:26;4.20;;;2.80;;
71648;SDS011;59492;45.638;11.714;2022-11-11T10:45:57;3.60;;;2.50;;
71648;SDS011;59492;45.638;11.714;2022-11-11T10:51:03;3.90;;;2.70;;
71648;SDS011;59492;45.638;11.714;2022-11-11T10:58:46;4.80;;;2.70;;
71648;SDS011;59492;45.638;11.714;2022-11-11T11:01:16;4.20;;;2.50;;
71648;SDS011;59492;45.638;11.714;2022-11-11T11:03:51;3.80;;;2.60;;
71648;SDS011;59492;45.638;11.714;2022-11-11T11:06:32;4.30;;;2.70;;
71648;SDS011;59492;45.638;11.714;2022-11-11T11:11:43;3.80;;;2.60;;
71648;SDS011;59492;45.638;11.714;2022-11-11T11:14:28;4.60;;;2.70;;
71648;SDS011;59492;45.638;11.714;2022-11-11T11:16:58;5.30;;;2.50;;
71648;SDS011;59492;45.638;11.714;2022-11-11T11:19:30;6.10;;;2.80;;
71648;SDS011;59492;45.638;11.714;2022-11-11T11:21:58;4.10;;;2.70;;
71648;SDS011;59492;45.638;11.714;2022-11-11T11:24:26;4.10;;;2.80;;
71648;SDS011;59492;45.638;11.714;2022-11-11T11:26:55;3.60;;;2.70;;
71648;SDS011;59492;45.638;11.714;2022-11-11T11:29:32;3.50;;;2.80;;
71648;SDS011;59492;45.638;11.714;2022-11-11T11:32:12;4.80;;;2.70;;
71648;SDS011;59492;45.638;11.714;2022-11-11T11:37:25;4.40;;;2.50;;
71648;SDS011;59492;45.638;11.714;2022-11-11T11:39:58;4.10;;;2.60;;
71648;SDS011;59492;45.638;11.714;2022-11-11T11:42:26;3.20;;;2.60;;
71648;SDS011;59492;45.638;11.714;2022-11-11T11:44:53;3.60;;;2.60;;
71648;SDS011;59492;45.638;11.714;2022-11-11T11:47:22;4.30;;;2.60;;
71648;SDS011;59492;45.638;11.714;2022-11-11T11:52:52;4.80;;;2.10;;
71648;SDS011;59492;45.638;11.714;2022-11-11T11:55:44;4.50;;;2.50;;
71648;SDS011;59492;45.638;11.714;2022-11-11T11:58:29;3.00;;;2.40;;
71648;SDS011;59492;45.638;11.714;2022-11-11T12:01:09;5.70;;;2.40;;
71648;SDS011;59492;45.638;11.714;2022-11-11T12:03:42;3.40;;;2.40;;
71648;SDS011;59492;45.638;11.714;2022-11-11T12:20:06;5.40;;;2.80;;
71648;SDS011;59492;45.638;11.714;2022-11-11T12:25:36;3.90;;;2.70;;
71648;SDS011;59492;45.638;11.714;2022-11-11T12:30:48;2.90;;;2.30;;
71648;SDS011;59492;45.638;11.714;2022-11-11T12:41:58;3.30;;;2.10;;
71648;SDS011;59492;45.638;11.714;2022-11-11T12:44:45;3.10;;;2.10;;
71648;SDS011;59492;45.638;11.714;2022-11-11T12:49:54;4.30;;;2.70;;
71648;SDS011;59492;45.638;11.714;2022-11-11T13:00:31;4.30;;;2.30;;
71648;SDS011;59492;45.638;11.714;2022-11-11T13:16:29;2.80;;;2.20;;
71648;SDS011;59492;45.638;11.714;2022-11-11T13:19:02;3.90;;;2.30;;
71648;SDS011;59492;45.638;11.714;2022-11-11T13:21:53;3.20;;;2.10;;
71648;SDS011;59492;45.638;11.714;2022-11-11T13:24:24;1.90;;;1.70;;
71648;SDS011;59492;45.638;11.714;2022-11-11T13:26:57;3.40;;;1.90;;
71648;SDS011;59492;45.638;11.714;2022-11-11T13:32:08;3.50;;;2.20;;
71648;SDS011;59492;45.638;11.714;2022-11-11T13:34:37;2.60;;;2.00;;
71648;SDS011;59492;45.638;11.714;2022-11-11T13:37:04;2.20;;;1.90;;
71648;SDS011;59492;45.638;11.714;2022-11-11T13:39:36;3.80;;;2.10;;
71648;SDS011;59492;45.638;11.714;2022-11-11T13:42:05;3.80;;;1.90;;
71648;SDS011;59492;45.638;11.714;2022-11-11T13:44:35;2.70;;;2.30;;
71648;SDS011;59492;45.638;11.714;2022-11-11T13:47:20;3.30;;;2.10;;
71648;SDS011;59492;45.638;11.714;2022-11-11T13:52:25;4.30;;;2.20;;
71648;SDS011;59492;45.638;11.714;2022-11-11T13:55:02;2.90;;;2.10;;
71648;SDS011;59492;45.638;11.714;2022-11-11T13:57:33;3.90;;;2.10;;
71648;SDS011;59492;45.638;11.714;2022-11-11T14:02:42;2.30;;;1.70;;
71648;SDS011;59492;45.638;11.714;2022-11-11T14:20:50;3.50;;;1.80;;
71648;SDS011;59492;45.638;11.714;2022-11-11T14:39:18;3.30;;;2.00;;
71648;SDS011;59492;45.638;11.714;2022-11-11T14:41:49;3.40;;;2.20;;
71648;SDS011;59492;45.638;11.714;2022-11-11T14:49:44;3.30;;;2.00;;
71648;SDS011;59492;45.638;11.714;2022-11-11T14:52:22;6.20;;;2.10;;
71648;SDS011;59492;45.638;11.714;2022-11-11T15:06:06;3.60;;;2.00;;
71648;SDS011;59492;45.638;11.714;2022-11-11T15:14:09;3.20;;;2.10;;
71648;SDS011;59492;45.638;11.714;2022-11-11T15:25:21;4.70;;;2.00;;
71648;SDS011;59492;45.638;11.714;2022-11-11T15:31:16;1.90;;;1.40;;
71648;SDS011;59492;45.638;11.714;2022-11-11T15:39:25;6.70;;;2.10;;
71648;SDS011;59492;45.638;11.714;2022-11-11T15:41:57;3.90;;;2.00;;
71648;SDS011;59492;45.638;11.714;2022-11-11T15:44:24;5.30;;;2.00;;
71648;SDS011;59492;45.638;11.714;2022-11-11T15:46:53;2.50;;;1.90;;
71648;SDS011;59492;45.638;11.714;2022-11-11T15:49:35;3.30;;;2.00;;
71648;SDS011;59492;45.638;11.714;2022-11-11T15:52:03;3.50;;;2.00;;
71648;SDS011;59492;45.638;11.714;2022-11-11T15:54:31;2.50;;;2.00;;
71648;SDS011;59492;45.638;11.714;2022-11-11T15:56:58;4.40;;;1.90;;
71648;SDS011;59492;45.638;11.714;2022-11-11T15:59:28;3.80;;;1.70;;
71648;SDS011;59492;45.638;11.714;2022-11-11T16:02:04;3.60;;;2.00;;
71648;SDS011;59492;45.638;11.714;2022-11-11T16:04:36;2.30;;;1.90;;
71648;SDS011;59492;45.638;11.714;2022-11-11T16:07:02;4.90;;;2.00;;
71648;SDS011;59492;45.638;11.714;2022-11-11T16:09:29;4.00;;;1.90;;
71648;SDS011;59492;45.638;11.714;2022-11-11T16:11:55;4.30;;;2.20;;
71648;SDS011;59492;45.638;11.714;2022-11-11T16:14:24;5.40;;;2.20;;
71648;SDS011;59492;45.638;11.714;2022-11-11T16:17:01;3.20;;;2.50;;
71648;SDS011;59492;45.638;11.714;2022-11-11T16:22:03;3.90;;;2.10;;
71648;SDS011;59492;45.638;11.714;2022-11-11T16:24:32;2.50;;;1.80;;
71648;SDS011;59492;45.638;11.714;2022-11-11T16:27:04;3.50;;;1.80;;
71648;SDS011;59492;45.638;11.714;2022-11-11T16:29:40;3.60;;;2.00;;
71648;SDS011;59492;45.638;11.714;2022-11-11T16:32:52;4.80;;;1.90;;
71648;SDS011;59492;45.638;11.714;2022-11-11T16:34:52;4.10;;;1.80;;
71648;SDS011;59492;45.638;11.714;2022-11-11T16:37:18;2.70;;;2.00;;
71648;SDS011;59492;45.638;11.714;2022-11-11T16:39:45;3.60;;;2.30;;
71648;SDS011;59492;45.638;11.714;2022-11-11T16:42:24;2.40;;;1.90;;
71648;SDS011;59492;45.638;11.714;2022-11-11T16:44:57;3.70;;;2.20;;
71648;SDS011;59492;45.638;11.714;2022-11-11T16:50:50;3.60;;;1.80;;
71648;SDS011;59492;45.638;11.714;2022-11-11T16:52:56;2.70;;;1.90;;
71648;SDS011;59492;45.638;11.714;2022-11-11T16:55:34;2.70;;;1.80;;
71648;SDS011;59492;45.638;11.714;2022-11-11T16:58:10;3.50;;;1.90;;
71648;SDS011;59492;45.638;11.714;2022-11-11T17:00:40;3.20;;;2.30;;
71648;SDS011;59492;45.638;11.714;2022-11-11T17:03:25;3.20;;;1.90;;
71648;SDS011;59492;45.638;11.714;2022-11-11T17:05:53;2.80;;;2.00;;
71648;SDS011;59492;45.638;11.714;2022-11-11T17:11:02;3.10;;;1.90;;
71648;SDS011;59492;45.638;11.714;2022-11-11T17:13:29;5.10;;;2.20;;
71648;SDS011;59492;45.638;11.714;2022-11-11T17:15:57;4.10;;;2.30;;
71648;SDS011;59492;45.638;11.714;2022-11-11T17:18:28;4.50;;;2.10;;
71648;SDS011;59492;45.638;11.714;2022-11-11T17:20:57;2.50;;;1.80;;
71648;SDS011;59492;45.638;11.714;2022-11-11T17:23:23;5.50;;;2.20;;
71648;SDS011;59492;45.638;11.714;2022-11-11T17:25:48;4.40;;;2.30;;
71648;SDS011;59492;45.638;11.714;2022-11-11T17:28:21;5.00;;;2.00;;
71648;SDS011;59492;45.638;11.714;2022-11-11T17:30:48;5.00;;;2.20;;
71648;SDS011;59492;45.638;11.714;2022-11-11T17:33:13;3.80;;;2.10;;
71648;SDS011;59492;45.638;11.714;2022-11-11T17:35:42;4.60;;;1.90;;
71648;SDS011;59492;45.638;11.714;2022-11-11T17:38:16;4.00;;;2.10;;
71648;SDS011;59492;45.638;11.714;2022-11-11T17:40:43;3.00;;;2.00;;
71648;SDS011;59492;45.638;11.714;2022-11-11T17:43:10;5.70;;;2.20;;
71648;SDS011;59492;45.638;11.714;2022-11-11T17:45:35;3.20;;;2.00;;
71648;SDS011;59492;45.638;11.714;2022-11-11T17:48:01;3.80;;;2.40;;
71648;SDS011;59492;45.638;11.714;2022-11-11T17:50:26;3.10;;;2.00;;
71648;SDS011;59492;45.638;11.714;2022-11-11T17:52:55;3.70;;;1.90;;